createdAt,value
2023-04-15T00:03:18.103Z,8.69
2023-04-15T00:08:27.008Z,8.25
2023-04-15T00:13:35.489Z,7.75
2023-04-15T00:18:45.239Z,7.62
2023-04-15T00:23:54.365Z,7.62
2023-04-15T00:29:04.133Z,7.44
2023-04-15T00:34:13.250Z,7.56
2023-04-15T00:39:23.137Z,7.62
2023-04-15T00:44:31.502Z,7.5
2023-04-15T00:49:40.585Z,7.62
2023-04-15T00:54:49.742Z,7.38
2023-04-15T00:59:58.853Z,7.19
2023-04-15T01:05:09.264Z,7.12
2023-04-15T01:10:19.001Z,7.19
2023-04-15T01:15:28.779Z,7.31
2023-04-15T01:20:38.560Z,7.19
2023-04-15T01:25:48.290Z,7.38
2023-04-15T01:30:58.036Z,7.25
2023-04-15T01:36:07.160Z,7.25
2023-04-15T01:41:17.554Z,7.06
2023-04-15T01:46:26.768Z,6.94
2023-04-15T01:51:35.276Z,7
2023-04-15T01:56:44.927Z,7
2023-04-15T02:01:55.352Z,6.94
2023-04-15T02:07:03.803Z,7.12
2023-04-15T02:12:12.927Z,6.62
2023-04-15T02:17:22.730Z,6.62
2023-04-15T02:22:32.442Z,6.56
2023-04-15T02:27:41.568Z,6.75
2023-04-15T02:32:50.769Z,6.5
2023-04-15T02:38:01.096Z,6.69
2023-04-15T02:43:10.204Z,6.38
2023-04-15T02:48:18.684Z,6.44
2023-04-15T02:53:28.448Z,6.31
2023-04-15T03:14:04.935Z,6.19
2023-04-15T04:00:28.291Z,5.81
2023-04-15T04:05:38.160Z,5.69
2023-04-15T04:10:46.536Z,5.62
2023-04-15T04:15:55.725Z,5.5
2023-04-15T04:21:04.775Z,5.75
2023-04-15T04:26:13.251Z,5.62
2023-04-15T04:31:23.050Z,5.81
2023-04-15T04:36:31.495Z,5.62
2023-04-15T04:41:41.236Z,5.81
2023-04-15T04:46:51.658Z,5.62
2023-04-15T04:52:01.404Z,5.44
2023-04-15T04:57:09.876Z,5.38
2023-04-15T05:02:18.517Z,5.62
2023-04-15T05:07:28.119Z,5.5
2023-04-15T05:12:36.603Z,5.5
2023-04-15T05:17:46.439Z,5.56
2023-04-15T05:22:54.200Z,5.69
2023-04-15T05:28:02.686Z,5.69
2023-04-15T05:33:12.452Z,5.62
2023-04-15T05:38:20.925Z,5.81
2023-04-15T05:43:29.399Z,5.94
2023-04-15T05:48:37.259Z,6.31
2023-04-15T05:53:46.386Z,6.5
2023-04-15T05:58:56.120Z,6.75
2023-04-15T06:04:04.742Z,7.06
2023-04-15T06:09:14.388Z,6.69
2023-04-15T06:14:22.847Z,6.75
2023-04-15T06:19:32.603Z,7.06
2023-04-15T06:24:41.086Z,7
2023-04-15T06:29:50.855Z,6.75
2023-04-15T06:34:59.957Z,6.62
2023-04-15T06:40:09.725Z,7.06
2023-04-15T06:45:20.119Z,6.94
2023-04-15T06:50:29.898Z,7.25
2023-04-15T06:55:38.364Z,7
2023-04-15T07:42:03.046Z,8.44
2023-04-15T07:47:11.568Z,8.56
2023-04-15T07:52:19.966Z,8.5
2023-04-15T07:57:29.737Z,8.94
2023-04-15T08:02:40.571Z,9.12
2023-04-15T08:07:47.340Z,8.94
2023-04-15T08:12:57.081Z,8.69
2023-04-15T08:18:06.206Z,9
2023-04-15T08:23:15.334Z,8.88
2023-04-15T08:28:25.082Z,8.94
2023-04-15T08:33:34.910Z,9.44
2023-04-15T08:38:43.962Z,9.31
2023-04-15T08:43:52.435Z,9.44
2023-04-15T08:49:02.570Z,8.69
2023-04-15T08:54:10.692Z,8.56
2023-04-15T08:59:20.459Z,8.44
2023-04-15T09:04:28.940Z,8.62
2023-04-15T09:09:38.044Z,8.44
2023-04-15T09:14:47.174Z,8.5
2023-04-15T09:19:55.672Z,8.31
2023-04-15T09:25:05.400Z,8.12
2023-04-15T09:30:15.173Z,8.31
2023-04-15T09:35:24.286Z,8.31
2023-04-15T09:40:35.335Z,8.62
2023-04-15T09:45:43.846Z,8.69
2023-04-15T09:50:52.919Z,8.31
2023-04-15T09:56:02.048Z,8.38
2023-04-15T10:01:10.568Z,8.25
2023-04-15T10:06:19.642Z,8.19
2023-04-15T10:11:30.433Z,8.44
2023-04-15T10:16:37.867Z,8.38
2023-04-15T10:21:46.377Z,8.81
2023-04-15T10:26:56.124Z,8.94
2023-04-15T10:32:05.894Z,9.06
2023-04-15T10:37:15.013Z,8.94
2023-04-15T10:42:23.483Z,8.94
2023-04-15T11:18:25.403Z,8.62
2023-04-15T11:23:34.643Z,8.81
2023-04-15T11:28:43.104Z,8.88
2023-04-15T11:33:52.742Z,8.81
2023-04-15T11:39:01.895Z,8.88
2023-04-15T11:44:11.621Z,8.88
2023-04-15T11:49:21.399Z,8.94
2023-04-15T11:54:30.517Z,9.12
2023-04-15T11:59:46.118Z,9.38
2023-04-15T12:04:50.187Z,9.38
2023-04-15T12:09:58.515Z,9.38
2023-04-15T12:15:07.014Z,9.56
2023-04-15T13:03:59.650Z,9.38
2023-04-15T13:09:08.075Z,9.62
2023-04-15T13:14:17.723Z,9.56
2023-04-15T13:19:26.980Z,9.75
2023-04-15T13:24:35.332Z,9.69
2023-04-15T13:29:45.723Z,9.81
2023-04-15T13:34:53.578Z,9.62
2023-04-15T13:40:02.097Z,9.44
2023-04-15T13:45:11.173Z,9.5
2023-04-15T13:50:20.295Z,9.5
2023-04-15T13:55:30.055Z,9.5
2023-04-15T14:00:38.550Z,9.38
2023-04-15T14:05:46.364Z,9.38
2023-04-15T14:10:54.852Z,9.19
2023-04-15T14:16:03.359Z,9.38
2023-04-15T14:21:12.450Z,9.5
2023-04-15T14:26:20.931Z,9.5
2023-04-15T14:31:29.395Z,9.31
2023-04-15T14:36:37.878Z,9.25
2023-04-15T14:41:47.650Z,9.06
2023-04-15T14:46:56.130Z,9.19
2023-04-15T14:52:05.239Z,9.19
2023-04-15T14:57:14.381Z,9.12
2023-04-15T15:02:39.542Z,9
2023-04-15T15:07:33.243Z,9
2023-04-15T15:12:43.002Z,9
2023-04-15T15:17:51.604Z,8.94
2023-04-15T15:22:59.960Z,9
2023-04-15T15:28:09.724Z,9.06
2023-04-15T15:33:18.862Z,9.12
2023-04-15T15:38:27.345Z,8.69
2023-04-15T15:43:37.079Z,8.81
2023-04-15T15:48:47.502Z,8.75
2023-04-15T15:53:55.960Z,8.88
2023-04-15T15:59:06.107Z,8.88
2023-04-15T16:45:28.445Z,8.31
2023-04-15T16:50:37.692Z,8.31
2023-04-15T16:55:46.079Z,8.25
2023-04-15T17:00:55.179Z,8
2023-04-15T17:06:03.639Z,8.12
2023-04-15T17:11:12.782Z,8.12
2023-04-15T17:16:22.710Z,8
2023-04-15T17:21:30.995Z,8.19
2023-04-15T17:26:39.492Z,8.25
2023-04-15T17:31:49.240Z,8.25
2023-04-15T17:36:57.720Z,8.25
2023-04-15T17:42:06.210Z,8.31
2023-04-15T17:47:15.318Z,8.25
2023-04-15T17:52:25.084Z,8.19
2023-04-15T17:57:34.201Z,8.19
2023-04-15T18:02:43.926Z,8.31
2023-04-15T18:07:53.114Z,8.25
2023-04-15T18:13:02.834Z,7.94
2023-04-15T18:18:12.613Z,8.19
2023-04-15T18:23:21.714Z,8.25
2023-04-15T18:28:30.848Z,8.25
2023-04-15T18:33:39.959Z,8.06
2023-04-15T18:38:49.739Z,8.12
2023-04-15T18:43:58.217Z,7.94
2023-04-15T18:49:07.894Z,8
2023-04-15T18:54:16.427Z,7.94
2023-04-15T18:59:30.650Z,8.06
2023-04-15T19:04:33.459Z,7.88
2023-04-15T19:09:41.882Z,7.81
2023-04-15T19:14:51.662Z,7.94
2023-04-15T19:20:01.402Z,7.81
2023-04-15T19:25:09.918Z,7.81
2023-04-15T19:30:18.379Z,7.88
2023-04-15T19:35:26.841Z,7.69
2023-04-15T19:40:36.603Z,7.75
2023-04-15T19:45:45.827Z,8
2023-04-15T20:26:56.760Z,7.88
2023-04-15T20:32:06.632Z,7.94
2023-04-15T20:37:16.289Z,8.12
2023-04-15T20:42:26.678Z,7.94
2023-04-15T20:47:35.192Z,8.06
2023-04-15T20:52:43.638Z,7.94
2023-04-15T20:57:54.040Z,7.88
2023-04-15T21:03:04.734Z,7.94
2023-04-15T21:08:12.920Z,7.75
2023-04-15T21:13:22.050Z,7.81
2023-04-15T21:18:31.185Z,7.75
2023-04-15T21:23:40.932Z,7.69
2023-04-15T21:28:50.054Z,7.56
2023-04-15T21:33:58.518Z,7.75
2023-04-15T21:39:07.407Z,7.69
2023-04-15T21:44:16.788Z,7.69
2023-04-15T21:49:25.655Z,7.62
2023-04-15T21:54:34.360Z,7.81
2023-04-15T21:59:44.136Z,7.75
2023-04-15T22:04:52.616Z,7.81
2023-04-15T22:10:02.379Z,7.69
2023-04-15T22:15:12.110Z,7.69
2023-04-15T22:20:21.237Z,7.62
2023-04-15T22:25:29.736Z,7.75
2023-04-15T22:30:38.835Z,7.75
2023-04-15T22:35:47.321Z,7.81
2023-04-15T22:40:56.450Z,7.81
2023-04-15T22:46:05.603Z,7.69
2023-04-15T22:51:14.677Z,7.88
2023-04-15T22:56:23.813Z,7.88
2023-04-15T23:01:32.983Z,7.88
2023-04-15T23:06:42.037Z,7.88
2023-04-15T23:11:51.168Z,8.06
2023-04-15T23:17:00.275Z,8.06
2023-04-15T23:22:09.416Z,8
2023-04-15T23:27:17.875Z,7.88
